Loisir ou Compétition : Rejoignez un Club de la Fédération

Résultats

FINALE U12 GEANT GARCONS

COMBLOUX

GS Hommes

Jury de Compétition

Délégué Technique :
BLANC PATRICK (SA)
Arbitre :
 
Assistant :
 
Dir. Epreuve :
BRONDEX JEAN MICHEL ()

Caractéristiques de la Piste

Piste :
CREVE-COEUR
Départ :
1700
Arrivée :
1500
Dénivelé :
200
Homologation :
2625/12/10

Manche 1

Nombre de Portes :
28
Heure de Départ :
9.45
Traceur :
MAIRE JEREMIE (MB)
Ouvreurs A :
ESF COMBLOUX ()
Ouvreurs B :
CLUB ()
Ouvreurs C :
CLUB ()
Ouvreurs D :
CLUB ()
Ouvreurs E :
 
Temps :
BEAU
Neige :
COMPACTE

Manche 2

Nombre de Portes :
28
Heure de Départ :
9.45
Traceur :
BERTHET PIERRE (MB)
Ouvreurs A :
ESF COMBLOUX ()
Ouvreurs B :
CLUB ()
Ouvreurs C :
CLUB ()
Ouvreurs D :
CLUB ()
Ouvreurs E :
 
Température Départ :
3
Température Arrivée :
4

Pénalité Appliquée :
180.0000

Catégorie :
U12
Clt Dos Clt/Cat Code An Nom Prénom Com Club Tps M1 Tps M2 Tps Tot Pts
Classés
1 96 1/U12 FFS2668003 2005 PROUVOST EMILE MB IC MAGLAND 44.53 43.29 1:27.82 180.00
2 103 2/U12 FFS2667722 2005 WURGES BASIL MB IC MAGLAND 45.27 43.77 1:29.04 193.61
3 58 3/U12 FFS2670337 2005 AUDO ROMAIN MB PASSY VARAN 44.75 44.65 1:29.40 197.63
4 25 4/U12 FFS2666205 2005 BRAUD YANN MB LES HOUCHES 44.28 45.63 1:29.91 203.32
5 56 5/U12 FFS2667903 2005 PETITI BASTIEN MB LES GETS S.C 45.26 44.67 1:29.93 203.55
6 55 6/U12 FFS2670227 2005 PICOT GAUTHIER MB SC COMBLOUX 44.96 45.03 1:29.99 204.22
7 69 7/U12 FFS2666214 2005 DESMET SASAKI KOJIRO MB LES HOUCHES 45.18 44.86 1:30.04 204.77
8 7 8/U12 FFS2663540 2005 LACOSTE PIERRE MB LES HOUCHES 44.18 46.07 1:30.25 207.12
9 99 9/U12 FFS2670805 2005 DALE JAMES MB SC CHAPELLE 45.84 44.78 1:30.62 211.25
10 31 10/U12 FFS2670219 2005 LAFONT ADRIAN MB SC COMBLOUX 45.05 45.90 1:30.95 214.93
11 61 11/U12 FFS2666215 2005 DEPERRAZ YANN MB LES HOUCHES 45.79 45.33 1:31.12 216.83
12 11 12/U12 FFS2666854 2005 PERRILLAT M PAUL MB SC GD BORNAN 44.97 46.58 1:31.55 221.62
12 67 12/U12 FFS2664155 2005 VIDAL PAUL MB CS LA CLUSAZ 45.85 45.70 1:31.55 221.62
14 45 14/U12 FFS2667737 2005 RICHARD TED MB SC MORZ AVO 46.20 45.43 1:31.63 222.52
15 94 15/U12 FFS2668712 2005 TISSIER BARTHELEMY JAMY MB SC CARROZ 46.22 45.45 1:31.67 222.96
16 92 16/U12 FFS2663284 2005 MELIS FABIEN MB SC THONON 47.30 45.05 1:32.35 230.55
17 23 17/U12 FFS2666498 2005 BAUR EMILE MB SC GD BORNAN 46.02 46.34 1:32.36 230.66
18 3 18/U12 FFS2670809 2005 GRILLET AUBERT ALEXIS MB SC CHAPELLE 45.45 46.98 1:32.43 231.44
19 90 19/U12 FFS2666407 2005 DUPONT BENJAMIN MB SEYTHENEX 46.17 46.46 1:32.63 233.68
20 88 20/U12 FFS2674027 2005 BENOIT CHARLES ALEXAND MB SC ST GERVAI 47.02 45.69 1:32.71 234.57
21 37 21/U12 FFS2662049 2005 LOURY FELIX MB CS LA CLUSAZ 46.16 46.67 1:32.83 235.91
22 85 22/U12 FFS2662051 2005 REYMOND ARNAUD MB CS LA CLUSAZ 46.88 46.04 1:32.92 236.91
23 93 23/U12 FFS2669321 2005 PRESSET ANTOINE MB SC MORILLON 47.05 45.88 1:32.93 237.02
24 26 24/U12 FFS2663995 2005 MARIE ARSENE MB CS LA CLUSAZ 46.28 46.67 1:32.95 237.25
24 60 24/U12 FFS2675717 2005 CROZET LEO MB SC COMBLOUX 46.95 46.00 1:32.95 237.25
26 1 26/U12 FFS2677011 2005 GODEFROY JULIEN MB SC ST GERVAI 45.55 47.62 1:33.17 239.70
27 100 27/U12 FFS2660680 2005 TESSIER NILS MB ANNECY SEMNO 47.62 45.70 1:33.32 241.38
28 86 28/U12 FFS2671291 2005 MARCHANDISE NICOLAS MB SC MORZ AVO 47.40 46.04 1:33.44 242.71
29 41 29/U12 FFS2661043 2005 RUFFET BON CORPS SAMUEL MB LES HOUCHES 47.16 46.31 1:33.47 243.05
30 73 30/U12 FFS2666265 2005 DELAVENAY JULES MB SC MIEUSSY 47.29 46.34 1:33.63 244.83
31 34 31/U12 FFS2667735 2005 LECLERCQ KILIAN MB SC MORZ AVO 46.81 47.01 1:33.82 246.96
32 5 32/U12 FFS2671296 2005 PAUVERT NATHAN MB JEAN D'AULPS 46.58 47.31 1:33.89 247.74
33 98 33/U12 FFS2669322 2005 ROSSET RAPHAEL MB SC MORZ AVO 47.23 46.68 1:33.91 247.96
34 30 34/U12 FFS2673111 2005 LE TRANCHANT TITOUAN MB SC MORZ AVO 47.15 46.89 1:34.04 249.41
34 71 34/U12 FFS2662048 2005 CHAMBET SAM MB CS LA CLUSAZ 47.07 46.97 1:34.04 249.41
36 44 36/U12 FFS2666823 2005 THIENNARD PIERRE MB SC GD BORNAN 46.50 47.55 1:34.05 249.52
37 38 37/U12 FFS2665233 2005 PINTRE OSCAR MB SC COMBLOUX 46.45 47.72 1:34.17 250.86
38 24 38/U12 FFS2682753 2005 LEGARD AURELIEN MB SC CORDON 47.32 46.88 1:34.20 251.20
39 51 39/U12 FFS2671297 2005 BASTARD COME MB JEAN D'AULPS 47.22 47.12 1:34.34 252.76
40 79 40/U12 FFS2660766 2005 VAULTIER MAXIME MB SC SAMOENS 47.77 46.75 1:34.52 254.77
41 84 41/U12 FFS2668713 2005 PECHOUTOU GUILLAUME MB SC CARROZ 47.57 47.16 1:34.73 257.11
42 62 42/U12 FFS2666342 2005 OUVRIER BUFFET JULES MB CS MANIGOD 47.28 47.46 1:34.74 257.22
43 70 43/U12 FFS2665928 2005 SCHMIDT MARCO MB IC MAGLAND 47.66 47.10 1:34.76 257.44
44 64 44/U12 FFS2665778 2005 COLLOMB PATTON ARTHUR MB CS MEGEVE 47.70 47.33 1:35.03 260.46
45 102 45/U12 FFS2670745 2005 COTTET DUMOULIN ENZO MB JEAN D'AULPS 49.10 46.04 1:35.14 261.69
46 83 46/U12 FFS2680622 2005 GOTTI MATHEO MB SALLANCHES 47.94 47.22 1:35.16 261.91
47 97 47/U12 FFS2665177 2005 DECISIER VIVIEN MB ANNECY SEMNO 48.40 46.81 1:35.21 262.47
48 104 48/U12 FFS2669658 2005 BALMAT ENZO MB CS CHAMONIX 48.22 47.00 1:35.22 262.58
49 17 49/U12 FFS2665296 2005 CORNALI LOUIS SIMON MB CS MEGEVE 47.64 47.67 1:35.31 263.58
50 16 50/U12 FFS2669735 2005 CHASSAGNE ROMEO MB CS CHAMONIX 47.27 48.05 1:35.32 263.69
51 18 51/U12 FFS2662179 2005 BERTHET MARTIN MB SC MORZ AVO 47.70 47.63 1:35.33 263.81
52 27 52/U12 FFS2669648 2005 GEX SAMUEL MB CS CHAMONIX 47.77 47.67 1:35.44 265.03
53 28 53/U12 FFS2660871 2005 LOMBARDOT GABIN MB SC CONTAMINE 47.22 48.42 1:35.64 267.26
54 13 54/U12 FFS2669904 2005 CHARLES AXEL MB CS BOGEVE 47.49 48.31 1:35.80 269.05
55 82 55/U12 FFS2668813 2005 CHAGNON CESAR MB SC GD BORNAN 48.39 47.46 1:35.85 269.61
56 21 56/U12 FFS2661520 2005 WILMOT TOBY MB SC SAMOENS 47.17 48.69 1:35.86 269.72
57 65 57/U12 FFS2672026 2005 MEYNET GAUTHIER THEO MB SC BELLEVAUX 48.17 47.70 1:35.87 269.83
58 9 58/U12 FFS2658411 2005 BAILLET EDGAR MB S.C. CHATEL 48.74 47.18 1:35.92 270.39
59 32 59/U12 FFS2673026 2005 GAUDILLERE ARTHUR MB S.C. CHATEL 47.89 48.05 1:35.94 270.61
60 33 60/U12 FFS2665678 2005 PEILLEX VALERIAN MB SC CHAPELLE 48.67 47.41 1:36.08 272.17
61 89 61/U12 FFS2669663 2005 GRYZKA TOM MB CS CHAMONIX 48.51 47.73 1:36.24 273.96
62 76 62/U12 FFS2684744 2005 LEVILION PIERRE MB SC CARROZ 48.95 47.44 1:36.39 275.63
63 39 63/U12 FFS2679075 2005 FRANCOIS HUGO MB SC TANINGES 47.86 48.54 1:36.40 275.75
63 101 63/U12 FFS2671333 2005 VALLA MATISSE MB CS MANIGOD 48.96 47.44 1:36.40 275.75
65 36 65/U12 FFS2671417 2005 CHOLLET ARTHUR MB SC ST GERVAI 48.51 48.09 1:36.60 277.98
66 95 66/U12 FFS2669050 2005 BASTARD R LOUIS MB SC GD BORNAN 48.39 48.22 1:36.61 278.09
67 43 67/U12 FFS2674337 2005 GALLAY JULES MB SC BERNEX 74 48.57 48.05 1:36.62 278.20
68 72 68/U12 FFS2659096 2005 GRESSET LASSERRE ANTOINE MB SC ST GERVAI 45.83 50.81 1:36.64 278.42
69 77 69/U12 FFS2664079 2005 DUBOCAGE QUENTIN MB SC BERNEX 74 49.13 47.63 1:36.76 279.76
70 57 70/U12 FFS2668476 2005 AZZOLIN TIMEO MB CS MEGEVE 48.39 48.54 1:36.93 281.66
71 68 71/U12 FFS2660678 2005 POCHAT AUGUSTIN MB ANNECY SEMNO 48.67 48.64 1:37.31 285.90
72 54 72/U12 FFS2668708 2005 MUTILLOD YVAN MB LES GETS S.C 48.67 48.65 1:37.32 286.01
73 40 73/U12 FFS2669320 2005 CARRIAS VICTOR MB SC MORILLON 48.88 49.13 1:38.01 293.71
74 8 74/U12 FFS2672302 2005 CHARRON FABIEN MB IC MAGLAND 48.39 49.65 1:38.04 294.05
75 6 75/U12 FFS2666564 2005 MAISTRE JOSEPH MB SC GD BORNAN 50.39 47.76 1:38.15 295.27
76 78 76/U12 FFS2667876 2005 FEUQUIERES GUILLAUME MB SC MORZ AVO 49.83 48.39 1:38.22 296.06
77 53 77/U12 FFS2669327 2005 LEFEBVRE JULES MB SC MORZ AVO 49.14 49.26 1:38.40 298.06
78 35 78/U12 FFS2667751 2005 BERTHOMIER ENZO MB SC MT SAXONN 49.94 48.47 1:38.41 298.18
79 15 79/U12 FFS2669701 2005 SAGUEZ TRISTAN MB CS CHAMONIX 49.13 49.30 1:38.43 298.40
80 75 80/U12 FFS2668474 2005 COPPEL MARIO MB LES GETS S.C 49.31 49.16 1:38.47 298.85
81 2 81/U12 FFS2670862 2005 BOITEAU HUGO MB CS MEGEVE 46.71 51.94 1:38.65 300.85
82 47 82/U12 FFS2672710 2005 GONCALVES LENAIN HUGO MB SC MIEUSSY 49.82 49.05 1:38.87 303.31
83 63 83/U12 FFS2673320 2005 DEJEAN MAYOR TOM MB CA BONNEVILL 49.30 50.63 1:39.93 315.14
84 29 84/U12 FFS2669905 2005 BIGOT MATHIAS MB CS BOGEVE 50.10 49.89 1:39.99 315.81
85 19 85/U12 FFS2678029 2005 KJAER PORTE EMIL MB CS MANIGOD 52.19 47.96 1:40.15 317.59
86 80 86/U12 FFS2665932 2005 MAC FARLAND HARRY MB SC SAMOENS 50.24 49.96 1:40.20 318.15
87 10 87/U12 FFS2662054 2005 TAPPY ANTOINE MB CS LA CLUSAZ 53.04 47.78 1:40.82 325.07
88 20 88/U12 FFS2671411 2005 CHARDOT PAUL MB SC MORILLON 50.29 51.66 1:41.95 337.68
89 66 89/U12 FFS2668372 2005 VESIN KEYLIAN MB LES GETS S.C 54.18 47.79 1:41.97 337.90
90 52 90/U12 FFS2673265 2005 DURAFFOURG QUENTIN MB VIUZ SALLAZ 50.85 51.61 1:42.46 343.37
91 87 91/U12 FFS2671410 2005 CHARDOT LOUIS MB SC MORILLON 52.51 52.49 1:45.00 371.71
92 14 92/U12 FFS2671331 2005 PACCARD CYPRIEN MB CS MANIGOD 56.60 48.87 1:45.47 376.96
Abandons
4 FFS2670804 2005 BILLINGS LUKE MB SC CHAPELLE 47.91
12 FFS2661038 2005 CANTELE BAPTISTE MB LES HOUCHES
22 FFS2667579 2005 LAVERGNE OSCAR MB SC GD BORNAN 46.44
42 FFS2665180 2005 MASSON JULES MB ANNECY SEMNO 46.69
46 FFS2664823 2005 RENAUDIN MATTEO MB ANNECY SEMNO 46.06
48 FFS2675013 2005 SIBERT ANGE MB CS LA CLUSAZ 46.04
49 FFS2673376 2005 SCULO KILLIAN MB SC CARROZ 47.15
50 FFS2667649 2005 TOURNIER JEAN MB SC GD BORNAN 45.68
59 FFS2673319 2005 LATOUR CLEMENT MB SC BELLEVAUX 47.26
81 FFS2667300 2005 MERMILLOD P VALENTIN MB SC GD BORNAN 46.26
Disqualifiés
74 FFS2662433 2005 CALVO TOM MB CS BRASSES 53.81
91 FFS2670925 2005 BOISIER NOAH MB SC MIEUSSY 46.84